Air Navigation Services of Czech Republic
Airport: LKCV Updated:  23.09.2017 23:18:07  UTC
 SPECI LKCV 23.09. 23:14 ...
SPECI LKCV 232314Z 29005KT 9999 BKN012 BKN050 11/10 Q1020 =
 METAR LKCV 23.09. 23:00 ...
METAR LKCV 232300Z 29006KT 9999 SCT012 BKN050 11/10 Q1020 NOSIG=
 TAF LKCV 23.09. 17:00 ...
TAF LKCV 231700Z 2318/2418 30006KT 6000 -RA BKN040      TEMPO 2318/2400 4000 RA BKN015      TEMPO 2322/2409 2000 DZ BKN008 OVC015=